Latest Weather Observations for Hay Point

IDQ60801

Issued at 7:22 pm EST Tuesday 23 October 2018 (issued every 10 minutes, with the page automatically refreshed every 10 minutes)

About weather observations | Map of weather stations | Latest weather observations for QLD | Other Formats
Station Details ID: 033317 Name: HAY POINT Lat: -21.29 Lon: 149.30 Height: 7.0 m
Data from the previous 72 hours. | See also: Recent months for locations in Queensland
Date/Time
EST
Temp
°C
App
Temp
°C
Dew
Point
°C
Rel
Hum
%
Delta-T
°C
Wind Press
QNH
hPa
Press
MSL
hPa
Rain since
9am
mm
Dir  Spd
km/h
Gust
km/h
Spd
kts
Gust
kts
23/07:00pm - - - - - ENE 20 26 11 14 - - -
23/06:30pm - - - - - ENE 19 24 10 13 - - -
23/06:00pm - - - - - ENE 19 22 10 12 - - -
23/05:30pm - - - - - ENE 24 28 13 15 - - -
23/05:00pm - - - - - ENE 26 30 14 16 - - -
23/04:30pm - - - - - E 26 30 14 16 - - -
23/04:00pm - - - - - E 26 30 14 16 - - -
23/03:30pm - - - - - E 26 30 14 16 - - -
23/03:00pm - - - - - E 24 28 13 15 - - -
23/02:30pm - - - - - E 22 28 12 15 - - -
23/02:00pm - - - - - E 20 26 11 14 - - -
23/01:30pm - - - - - ENE 20 24 11 13 - - -
23/01:00pm - - - - - ENE 19 24 10 13 - - -
23/12:30pm - - - - - ENE 19 22 10 12 - - -
23/12:00pm - - - - - ENE 17 20 9 11 - - -
23/11:30am - - - - - E 19 22 10 12 - - -
23/11:00am - - - - - ENE 17 19 9 10 - - -
23/10:30am - - - - - ENE 15 19 8 10 - - -
23/10:00am - - - - - NE 15 19 8 10 - - -
23/09:30am - - - - - NE 17 19 9 10 - - -
23/09:00am - - - - - NE 17 20 9 11 - - -
23/08:30am - - - - - NE 15 17 8 9 - - -
23/08:00am - - - - - NE 15 19 8 10 - - -
23/07:30am - - - - - NE 17 19 9 10 - - -
23/07:00am - - - - - NE 17 19 9 10 - - -
23/06:30am - - - - - NE 15 19 8 10 - - -
23/06:00am - - - - - NE 19 22 10 12 - - -
23/05:30am - - - - - NE 19 26 10 14 - - -
23/05:00am - - - - - NE 20 24 11 13 - - -
23/04:30am - - - - - NE 22 26 12 14 - - -
23/04:00am - - - - - NE 24 26 13 14 - - -
23/03:30am - - - - - NE 24 28 13 15 - - -
23/03:00am - - - - - NE 24 30 13 16 - - -
23/02:30am - - - - - NE 20 26 11 14 - - -
23/02:00am - - - - - ENE 20 24 11 13 - - -
23/01:30am - - - - - ENE 22 28 12 15 - - -
23/01:00am - - - - - E 17 20 9 11 - - -
23/12:30am - - - - - ENE 20 26 11 14 - - -
23/12:00am - - - - - ENE 19 20 10 11 - - -
 
Date/Time
EST
Temp
°C
App
Temp
°C
Dew
Point
°C
Rel
Hum
%
Delta-T
°C
Wind Press
QNH
hPa
Press
MSL
hPa
Rain since
9am
mm
Dir  Spd
km/h
Gust
km/h
Spd
kts
Gust
kts
22/11:30pm - - - - - ENE 20 24 11 13 - - -
22/11:00pm - - - - - NE 22 26 12 14 - - -
22/10:30pm - - - - - NE 24 28 13 15 - - -
22/10:00pm - - - - - ENE 22 26 12 14 - - -
22/09:30pm - - - - - NE 22 28 12 15 - - -
22/09:00pm - - - - - NE 24 28 13 15 - - -
22/08:30pm - - - - - NE 24 26 13 14 - - -
22/08:00pm - - - - - NE 24 28 13 15 - - -
22/07:30pm - - - - - NE 26 28 14 15 - - -
22/07:00pm - - - - - NNE 26 30 14 16 - - -
22/06:30pm - - - - - NNE 24 26 13 14 - - -
22/06:00pm - - - - - NE 24 28 13 15 - - -
22/05:30pm - - - - - NNE 20 26 11 14 - - -
22/05:00pm - - - - - NE 22 28 12 15 - - -
22/04:30pm - - - - - NE 24 30 13 16 - - -
22/04:00pm - - - - - NE 24 28 13 15 - - -
22/03:30pm - - - - - NE 26 28 14 15 - - -
22/03:00pm - - - - - NE 24 28 13 15 - - -
22/02:30pm - - - - - NE 24 28 13 15 - - -
22/02:00pm - - - - - NE 20 22 11 12 - - -
22/01:30pm - - - - - NE 20 26 11 14 - - -
22/01:00pm - - - - - NE 20 24 11 13 - - -
22/12:30pm - - - - - NE 17 20 9 11 - - -
22/12:00pm - - - - - NE 17 20 9 11 - - -
22/11:30am - - - - - NE 19 22 10 12 - - -
22/11:00am - - - - - NE 19 22 10 12 - - -
22/10:30am - - - - - NE 15 19 8 10 - - -
22/10:00am - - - - - NE 13 17 7 9 - - -
22/09:30am - - - - - NE 13 17 7 9 - - -
22/09:00am - - - - - NE 13 15 7 8 - - -
22/08:30am - - - - - NE 13 15 7 8 - - -
22/08:00am - - - - - NNE 13 17 7 9 - - -
22/07:30am - - - - - NE 15 19 8 10 - - -
22/07:00am - - - - - NNE 17 20 9 11 - - -
22/06:30am - - - - - NE 19 24 10 13 - - -
22/06:00am - - - - - NNE 17 20 9 11 - - -
22/05:30am - - - - - NNE 22 26 12 14 - - -
22/05:00am - - - - - NNE 20 26 11 14 - - -
22/04:30am - - - - - NNE 24 28 13 15 - - -
22/04:00am - - - - - NNE 22 28 12 15 - - -
22/03:30am - - - - - NNE 22 28 12 15 - - -
22/03:00am - - - - - N 22 28 12 15 - - -
22/02:30am - - - - - NNE 24 28 13 15 - - -
22/02:00am - - - - - NNE 26 28 14 15 - - -
22/01:30am - - - - - N 24 33 13 18 - - -
22/01:00am - - - - - NNE 28 30 15 16 - - -
22/12:30am - - - - - NNE 24 30 13 16 - - -
22/12:00am - - - - - NNE 26 30 14 16 - - -
 
Date/Time
EST
Temp
°C
App
Temp
°C
Dew
Point
°C
Rel
Hum
%
Delta-T
°C
Wind Press
QNH
hPa
Press
MSL
hPa
Rain since
9am
mm
Dir  Spd
km/h
Gust
km/h
Spd
kts
Gust
kts
21/11:30pm - - - - - N 26 30 14 16 - - -
21/11:00pm - - - - - N 26 32 14 17 - - -
21/10:30pm - - - - - N 24 30 13 16 - - -
21/10:00pm - - - - - N 24 30 13 16 - - -
21/09:30pm - - - - - N 24 28 13 15 - - -
21/09:00pm - - - - - N 24 30 13 16 - - -
21/08:30pm - - - - - NNE 22 28 12 15 - - -
21/08:00pm - - - - - NNE 22 28 12 15 - - -
21/07:30pm - - - - - NNE 22 26 12 14 - - -
21/07:00pm - - - - - NNE 20 26 11 14 - - -
21/06:30pm - - - - - NNE 22 26 12 14 - - -
21/06:00pm - - - - - NNE 20 24 11 13 - - -
21/05:30pm - - - - - NNE 22 26 12 14 - - -
21/05:00pm - - - - - NNE 22 28 12 15 - - -
21/04:30pm - - - - - NE 24 26 13 14 - - -
21/04:00pm - - - - - NE 22 26 12 14 - - -
21/03:30pm - - - - - NE 24 26 13 14 - - -
21/03:00pm - - - - - NE 24 28 13 15 - - -
21/02:30pm - - - - - NE 24 28 13 15 - - -
21/02:00pm - - - - - NE 26 30 14 16 - - -
21/01:30pm - - - - - NE 24 28 13 15 - - -
21/01:00pm - - - - - NE 24 28 13 15 - - -
21/12:30pm - - - - - NE 20 26 11 14 - - -
21/12:00pm - - - - - NE 19 24 10 13 - - -
21/11:30am - - - - - NE 19 22 10 12 - - -
21/11:00am - - - - - NE 17 22 9 12 - - -
21/10:30am - - - - - NE 15 17 8 9 - - -
21/10:00am - - - - - NNE 13 15 7 8 - - -
21/09:30am - - - - - N 11 13 6 7 - - -
21/09:00am - - - - - N 13 17 7 9 - - -
21/08:30am - - - - - N 13 17 7 9 - - -
21/08:00am - - - - - N 15 17 8 9 - - -
21/07:30am - - - - - N 15 19 8 10 - - -
21/07:00am - - - - - NNW 11 17 6 9 - - -
21/06:30am - - - - - N 15 19 8 10 - - -
21/06:00am - - - - - N 17 22 9 12 - - -
21/05:30am - - - - - N 17 22 9 12 - - -
21/05:00am - - - - - N 20 24 11 13 - - -
21/04:30am - - - - - N 24 28 13 15 - - -
21/04:00am - - - - - N 20 24 11 13 - - -
21/03:30am - - - - - N 24 30 13 16 - - -
21/03:00am - - - - - NNE 20 24 11 13 - - -
21/02:30am - - - - - NNE 17 20 9 11 - - -
21/02:00am - - - - - N 17 22 9 12 - - -
21/01:30am - - - - - NNE 17 20 9 11 - - -
21/01:00am - - - - - N 17 22 9 12 - - -
21/12:30am - - - - - N 19 20 10 11 - - -
21/12:00am - - - - - N 20 24 11 13 - - -
 
Date/Time
EST
Temp
°C
App
Temp
°C
Dew
Point
°C
Rel
Hum
%
Delta-T
°C
Wind Press
QNH
hPa
Press
MSL
hPa
Rain since
9am
mm
Dir  Spd
km/h
Gust
km/h
Spd
kts
Gust
kts
20/11:30pm - - - - - N 19 24 10 13 - - -
20/11:00pm - - - - - NNE 19 24 10 13 - - -
20/10:30pm - - - - - NNE 20 26 11 14 - - -
20/10:00pm - - - - - NNE 17 19 9 10 - - -
20/09:30pm - - - - - NNE 17 19 9 10 - - -
20/09:00pm - - - - - NE 13 17 7 9 - - -
20/08:30pm - - - - - NE 13 19 7 10 - - -
20/08:00pm - - - - - NE 17 20 9 11 - - -
20/07:30pm - - - - - NE 17 19 9 10 - - -

Other Formats:

Comma delimited format used in spreadsheet applications
http://www.bom.gov.au/fwo/IDQ60801/IDQ60801.99367.axf

JavaScript Object Notation format (JSON) in row-major order
http://www.bom.gov.au/fwo/IDQ60801/IDQ60801.99367.json